Latest Weather Observations for Fowlers Gap

IDN60801

Issued at 4:34 pm EDT Friday 6 March 2015 (issued every 30 minutes, with the page automatically refreshed every 10 minutes)

About weather observations | Map of weather stations | Latest weather observations for NSW | Other Formats
Station Details ID: 046128 Name: FOWLERS GAP AWS Lat: -31.09 Lon: 141.70 Height: 181.0 m
Data from the previous 72 hours. | See also: Recent months at Fowlers Gap
Date/Time
EDT
Temp
°C
App
Temp
°C
Dew
Point
Rel
Hum
%
Delta-T
°C
Wind Press
QNH
hPa
Press
MSL
hPa
Rain
since 9 am
mm
Dir
 
Spd
km/h
Gust
km/h
Spd
kts
Gust
kts
06/04:30pm 26.9 21.6 2.1 20 12.1 S 19 26 10 14 1013.1 1012.3 0.0
06/04:00pm 26.3 21.1 2.3 21 11.7 S 19 24 10 13 1013.6 1012.8 0.0
06/03:30pm 25.7 20.3 2.4 22 11.4 S 20 32 11 17 1014.0 1013.2 0.0
06/03:00pm 24.7 19.9 2.8 24 10.7 SSE 17 28 9 15 1014.6 1013.8 0.0
06/02:30pm 24.4 19.7 3.1 25 10.4 S 17 30 9 16 1015.2 1014.3 0.0
06/02:00pm 24.0 19.0 4.4 28 9.8 S 20 33 11 18 1015.6 1014.7 0.0
06/01:30pm 22.2 17.0 3.8 30 9.0 S 20 30 11 16 1016.2 1015.3 0.0
06/01:00pm 21.4 15.8 3.6 31 8.6 SSE 22 30 12 16 1016.9 1016.1 0.0
06/12:30pm 21.1 15.3 4.6 34 8.1 SSE 24 32 13 17 1017.2 1016.4 0.0
06/12:00pm 19.9 13.7 4.4 36 7.5 SSE 26 37 14 20 1017.6 1016.8 0.0
06/11:30am 19.3 13.6 5.0 39 7.0 SSE 24 37 13 20 1018.1 1017.3 0.0
06/11:00am 18.9 11.8 5.4 41 6.6 SSE 32 39 17 21 1018.1 1017.3 0.0
06/10:30am 17.6 10.6 5.9 46 5.8 SSE 32 41 17 22 1017.9 1017.1 0.0
06/10:00am 16.7 9.4 5.3 47 5.5 S 33 41 18 22 1018.1 1017.3 0.0
06/09:30am 16.1 9.9 4.5 46 5.5 S 26 33 14 18 1018.0 1017.2 0.0
06/09:00am 14.8 8.6 4.2 49 4.9 S 26 35 14 19 1017.8 1017.0 0.0
06/08:30am 14.2 7.7 4.5 52 4.5 S 28 35 15 19 1017.8 1017.0 0.0
06/08:00am 13.6 6.9 3.9 52 4.4 SSE 28 35 15 19 1017.3 1016.5 0.0
06/07:30am 13.5 6.6 2.7 48 4.8 S 28 35 15 19 1017.2 1016.4 0.0
06/07:00am 14.0 7.4 2.3 45 5.2 S 26 35 14 19 1016.8 1016.0 0.0
06/06:30am 14.5 8.3 2.1 43 5.5 SSE 24 28 13 15 1016.5 1015.6 0.0
06/06:00am 15.1 8.8 1.3 39 6.0 SSE 24 30 13 16 1016.6 1015.8 0.0
06/05:30am 15.1 9.9 0.2 36 6.4 S 17 20 9 11 1016.4 1015.5 0.0
06/05:00am 15.8 10.0 0.0 34 6.8 S 20 26 11 14 1016.7 1015.9 0.0
06/04:30am 16.1 10.2 -0.6 32 7.1 S 20 26 11 14 1016.9 1016.1 0.0
06/04:00am 16.6 10.6 -1.5 29 7.6 S 20 26 11 14 1016.8 1016.0 0.0
06/03:30am 14.6 10.5 -2.8 30 6.9 SW 9 9 5 5 1017.0 1016.2 0.0
06/03:00am 16.9 11.3 -2.7 26 8.0 S 17 20 9 11 1017.0 1016.2 0.0
06/02:30am 16.8 11.6 -2.8 26 8.0 SSE 15 20 8 11 1017.4 1016.6 0.0
06/02:00am 17.0 11.8 -2.6 26 8.0 S 15 19 8 10 1017.8 1017.0 0.0
06/01:30am 17.0 12.2 -2.6 26 8.1 S 13 17 7 9 1017.9 1017.1 0.0
06/01:00am 16.2 11.8 -2.3 28 7.6 SSE 11 13 6 7 1017.9 1017.1 0.0
06/12:30am 16.7 12.0 -1.9 28 7.7 S 13 15 7 8 1018.2 1017.4 0.0
06/12:00am 16.0 12.7 -0.2 33 6.9 SSE 7 11 4 6 1018.5 1017.7 0.0
 
Date/Time
EDT
Temp
°C
App
Temp
°C
Dew
Point
Rel
Hum
%
Delta-T
°C
Wind Press
QNH
hPa
Press
MSL
hPa
Rain
since 9 am
mm
Dir
 
Spd
km/h
Gust
km/h
Spd
kts
Gust
kts
05/11:30pm 16.0 12.8 -0.2 33 6.9 S 6 11 3 6 1018.6 1017.8 0.0
05/11:00pm 16.6 13.5 -0.1 32 7.2 SSW 6 9 3 5 1018.6 1017.8 0.0
05/10:30pm 17.7 14.0 -0.1 30 7.8 SSW 9 9 5 5 1018.6 1017.8 0.0
05/10:00pm 18.4 14.6 -0.4 28 8.2 S 9 11 5 6 1018.2 1017.4 0.0
05/09:30pm 20.2 15.4 0.1 26 9.0 SSE 15 20 8 11 1017.9 1017.1 0.0
05/09:00pm 20.8 15.5 -0.5 24 9.4 SSE 17 22 9 12 1017.4 1016.6 0.0
05/08:30pm 21.4 14.6 -1.8 21 10.1 SSE 24 35 13 19 1017.0 1016.2 0.0
05/08:00pm 21.9 13.6 -1.4 21 10.3 S 32 39 17 21 1016.7 1015.9 0.0
05/07:30pm 23.0 14.8 -1.1 20 10.8 SSE 32 39 17 21 1016.4 1015.5 0.0
05/07:00pm 23.8 15.7 -0.5 20 11.1 SSE 32 41 17 22 1016.2 1015.3 0.0
05/06:30pm 24.6 16.8 -0.5 19 11.5 SSE 30 37 16 20 1016.0 1015.1 0.0
05/06:00pm 24.7 17.0 -0.4 19 11.5 SSE 30 41 16 22 1015.9 1015.0 0.0
05/05:30pm 25.8 18.2 0.5 19 11.9 SSE 30 41 16 22 1015.8 1014.9 0.0
05/05:00pm 26.3 18.6 0.1 18 12.3 SSE 30 46 16 25 1015.6 1014.7 0.0
05/04:30pm 25.8 18.0 1.8 21 11.6 SSE 32 43 17 23 1015.9 1015.0 0.0
05/04:00pm 25.7 18.0 2.4 22 11.3 SSE 32 50 17 27 1016.1 1015.2 0.0
05/03:57pm 25.9 19.0 2.6 22 11.4 SSE 28 50 15 27 1016.0 1015.1 0.0
05/03:30pm 25.4 18.8 4.0 25 10.7 SSE 28 35 15 19 1016.4 1015.5 0.0
05/03:00pm 25.1 18.2 4.8 27 10.3 S 30 43 16 23 1016.9 1016.1 0.0
05/02:30pm 25.3 19.0 5.5 28 10.2 SSE 28 43 15 23 1017.2 1016.4 0.0
05/02:00pm 23.9 17.6 5.8 31 9.3 SSE 28 37 15 20 1017.5 1016.7 0.0
05/01:30pm 24.2 18.4 7.8 35 8.7 SSE 28 43 15 23 1017.9 1017.1 0.0
05/01:00pm 23.1 16.8 8.8 40 7.7 SSE 32 41 17 22 1018.5 1017.7 0.0
05/12:30pm 22.5 16.3 9.3 43 7.2 SSE 32 41 17 22 1019.0 1018.2 0.0
05/12:00pm 22.0 16.3 9.9 46 6.6 SSE 30 48 16 26 1019.6 1018.8 0.0
05/11:49am 22.0 15.8 10.2 47 6.5 SSE 33 52 18 28 1019.5 1018.7 0.0
05/11:30am 21.4 15.2 9.9 48 6.3 SSE 33 43 18 23 1019.5 1018.7 0.0
05/11:00am 20.9 14.7 10.1 50 5.9 SSE 33 46 18 25 1019.4 1018.6 0.0
05/10:49am 20.2 13.5 9.7 51 5.7 SSE 35 54 19 29 1019.5 1018.7 0.0
05/10:30am 20.0 13.9 9.9 52 5.5 S 32 43 17 23 1019.5 1018.7 0.0
05/10:00am 19.8 12.9 10.2 54 5.2 SSE 37 46 20 25 1019.2 1018.4 0.0
05/09:30am 19.2 12.3 10.2 56 4.9 SSE 37 50 20 27 1019.3 1018.5 0.0
05/09:00am 18.8 12.1 9.8 56 4.8 S 35 48 19 26 1019.0 1018.2 0.0
05/08:30am 18.2 13.0 10.1 59 4.3 SSE 28 41 15 22 1018.9 1018.1 0.0
05/08:00am 17.6 13.1 10.2 62 4.0 S 24 33 13 18 1018.3 1017.5 0.0
05/07:30am 17.6 12.7 10.0 61 4.1 S 26 33 14 18 1017.8 1017.0 0.0
05/07:14am 17.7 12.4 9.8 60 4.2 S 28 48 15 26 1017.7 1016.9 0.0
05/07:00am 17.8 13.3 9.9 60 4.2 SSE 24 33 13 18 1017.7 1016.9 0.0
05/06:30am 18.1 13.3 10.2 60 4.2 S 26 35 14 19 1017.2 1016.4 0.0
05/06:00am 18.3 14.1 9.6 57 4.6 S 22 30 12 16 1016.6 1015.8 0.0
05/05:30am 18.9 14.9 9.1 53 5.2 S 20 28 11 15 1016.2 1015.3 0.0
05/05:00am 19.6 13.2 8.6 49 5.8 S 32 43 17 23 1015.8 1014.9 0.0
05/04:30am 20.4 13.6 6.7 41 7.0 S 32 44 17 24 1015.5 1014.6 0.0
05/04:00am 21.2 14.5 5.5 36 7.9 S 30 43 16 23 1015.3 1014.4 0.0
05/03:30am 21.8 15.3 4.8 33 8.4 S 28 35 15 19 1015.1 1014.2 0.0
05/03:00am 22.7 16.1 4.2 30 9.1 S 28 39 15 21 1014.6 1013.8 0.0
05/02:30am 23.7 17.1 4.1 28 9.7 S 28 35 15 19 1014.7 1013.9 0.0
05/02:00am 24.4 20.5 7.1 33 9.1 S 17 28 9 15 1014.6 1013.8 0.0
05/01:30am 24.3 20.5 7.4 34 8.9 S 17 22 9 12 1014.6 1013.8 0.0
05/01:00am 25.1 21.3 7.7 33 9.3 S 17 20 9 11 1014.7 1013.9 0.0
05/12:30am 25.5 21.3 7.6 32 9.6 S 19 24 10 13 1014.6 1013.8 0.0
05/12:00am 26.0 21.3 7.6 31 9.9 S 22 28 12 15 1014.6 1013.8 0.0
 
Date/Time
EDT
Temp
°C
App
Temp
°C
Dew
Point
Rel
Hum
%
Delta-T
°C
Wind Press
QNH
hPa
Press
MSL
hPa
Rain
since 9 am
mm
Dir
 
Spd
km/h
Gust
km/h
Spd
kts
Gust
kts
04/11:30pm 26.3 22.1 7.4 30 10.1 S 19 24 10 13 1014.6 1013.8 0.0
04/11:00pm 26.9 23.1 7.4 29 10.5 SSW 17 24 9 13 1014.6 1013.8 0.0
04/10:30pm 27.1 23.2 7.0 28 10.7 SSW 17 19 9 10 1014.7 1013.9 0.0
04/10:00pm 27.4 23.8 6.8 27 11.0 SSW 15 19 8 10 1014.6 1013.8 0.0
04/09:30pm 28.3 24.4 7.0 26 11.4 SSW 17 20 9 11 1013.9 1013.1 0.0
04/09:00pm 28.7 25.5 6.7 25 11.8 SW 13 17 7 9 1013.7 1012.9 0.0
04/08:30pm 29.6 26.4 6.9 24 12.3 SW 13 19 7 10 1013.2 1012.4 0.0
04/08:00pm 30.1 26.1 6.7 23 12.6 SW 17 24 9 13 1013.0 1012.2 0.0
04/07:30pm 31.3 27.4 7.1 22 13.2 SW 17 26 9 14 1012.7 1011.9 0.0
04/07:00pm 31.5 27.5 6.5 21 13.6 SW 17 24 9 13 1012.9 1012.1 0.0
04/06:30pm 31.5 27.5 6.5 21 13.6 SW 17 28 9 15 1012.9 1012.1 0.0
04/06:00pm 32.2 28.5 6.4 20 14.0 W 15 24 8 13 1012.9 1012.1 0.0
04/05:30pm 32.3 29.4 6.5 20 14.0 SSW 11 24 6 13 1012.9 1012.1 0.0
04/05:00pm 32.4 29.1 6.6 20 14.1 W 13 24 7 13 1012.9 1012.1 0.0
04/04:30pm 32.5 29.3 6.7 20 14.1 SW 13 22 7 12 1013.1 1012.3 0.0
04/04:00pm 30.7 27.7 5.9 21 13.3 SSE 11 19 6 10 1013.6 1012.8 0.0
04/03:30pm 31.3 28.6 5.7 20 13.7 SSW 9 17 5 9 1014.0 1013.2 0.0
04/03:00pm 30.8 27.6 5.3 20 13.5 SSE 11 19 6 10 1014.5 1013.7 0.0
04/02:30pm 29.9 27.0 4.5 20 13.2 ESE 9 17 5 9 1014.7 1013.9 0.0
04/02:00pm 29.6 25.9 4.3 20 13.1 SE 13 22 7 12 1015.2 1014.3 0.0
04/01:30pm 28.6 24.1 4.2 21 12.5 SE 17 22 9 12 1015.6 1014.7 0.0
04/01:00pm 28.8 24.3 4.3 21 12.6 ESE 17 26 9 14 1015.8 1014.9 0.0
04/12:30pm 28.0 22.9 4.3 22 12.1 SE 20 32 11 17 1016.2 1015.3 0.0
04/12:00pm 28.1 22.9 3.7 21 12.4 SE 20 32 11 17 1016.4 1015.5 0.0
04/11:30am 26.8 21.3 4.0 23 11.5 SE 22 30 12 16 1016.4 1015.5 0.0
04/11:00am 26.9 21.0 4.0 23 11.6 SE 24 32 13 17 1016.6 1015.8 0.0
04/10:30am 26.2 20.2 3.4 23 11.4 SE 24 33 13 18 1016.7 1015.9 0.0
04/10:00am 26.0 20.5 3.9 24 11.1 SE 22 30 12 16 1016.5 1015.6 0.0
04/09:30am 24.7 18.4 3.9 26 10.4 SE 26 37 14 20 1016.3 1015.4 0.0
04/09:00am 24.2 18.4 4.6 28 9.8 SE 24 33 13 18 1016.1 1015.2 0.0
04/08:30am 23.3 18.3 4.8 30 9.3 SSE 20 30 11 16 1015.8 1014.9 0.0
04/08:00am 22.6 17.9 5.1 32 8.8 SSE 19 26 10 14 1015.1 1014.2 0.0
04/07:30am 22.7 17.9 5.6 33 8.7 SSE 20 32 11 17 1014.5 1013.7 0.0
04/07:00am 22.9 17.7 5.3 32 8.9 SSE 22 33 12 18 1014.1 1013.3 0.0
04/06:30am 23.1 17.9 5.5 32 8.9 SSE 22 32 12 17 1013.7 1012.9 0.0
04/06:00am 23.4 18.2 5.3 31 9.2 SSE 22 30 12 16 1013.8 1013.0 0.0
04/05:30am 23.7 18.9 5.6 31 9.2 SSE 20 26 11 14 1013.4 1012.6 0.0
04/05:00am 24.1 19.3 5.5 30 9.5 SSE 20 26 11 14 1013.3 1012.5 0.0
04/04:30am 24.4 19.5 5.2 29 9.8 SSE 20 26 11 14 1013.2 1012.4 0.0
04/04:00am 25.1 20.5 5.8 29 10.0 SSE 19 24 10 13 1013.2 1012.4 0.0
04/03:30am 25.3 21.1 5.5 28 10.2 SSE 17 26 9 14 1013.2 1012.4 0.0
04/03:00am 24.8 22.1 5.6 29 9.9 S 9 11 5 6 1013.5 1012.7 0.0
04/02:30am 24.1 21.9 5.5 30 9.5 SW 6 7 3 4 1013.5 1012.7 0.0
04/02:00am 24.9 21.8 5.7 29 9.9 SSE 11 13 6 7 1013.7 1012.9 0.0
04/01:30am 24.9 22.1 5.2 28 10.1 S 9 11 5 6 1014.2 1013.4 0.0
04/01:00am 25.2 23.0 5.4 28 10.2 SSE 6 7 3 4 1014.3 1013.5 0.0
04/12:30am 25.6 22.8 5.2 27 10.5 SSE 9 11 5 6 1014.4 1013.6 0.0
04/12:00am 26.4 22.9 5.4 26 10.8 S 13 17 7 9 1014.6 1013.8 0.0
 
Date/Time
EDT
Temp
°C
App
Temp
°C
Dew
Point
Rel
Hum
%
Delta-T
°C
Wind Press
QNH
hPa
Press
MSL
hPa
Rain
since 9 am
mm
Dir
 
Spd
km/h
Gust
km/h
Spd
kts
Gust
kts
03/11:30pm 26.6 24.3 5.5 26 10.9 SSE 7 11 4 6 1014.7 1013.9 0.0
03/11:00pm 26.8 24.4 5.1 25 11.2 SSE 7 9 4 5 1014.7 1013.9 0.0
03/10:30pm 27.7 24.9 5.3 24 11.6 SSE 9 11 5 6 1014.6 1013.8 0.0
03/10:00pm 28.7 25.8 4.9 22 12.4 S 9 11 5 6 1014.4 1013.6 0.0
03/09:30pm 30.2 26.2 4.8 20 13.3 SSE 15 20 8 11 1014.0 1013.2 0.0
03/09:00pm 31.0 26.2 4.7 19 13.8 SSE 19 24 10 13 1013.7 1012.9 0.0
03/08:30pm 31.5 26.5 3.5 17 14.4 SSE 19 26 10 14 1013.4 1012.6 0.0
03/08:00pm 32.3 27.5 2.4 15 15.2 SSE 17 22 9 12 1013.0 1012.2 0.0
03/07:30pm 33.3 28.1 2.2 14 15.9 SSE 19 26 10 14 1012.9 1012.1 0.0
03/07:00pm 34.0 28.3 2.8 14 16.2 S 22 32 12 17 1012.6 1011.8 0.0
03/06:30pm 34.4 28.5 2.0 13 16.6 SSE 22 33 12 18 1012.7 1011.9 0.0
03/06:00pm 34.8 29.4 2.3 13 16.8 SSE 20 39 11 21 1012.5 1011.7 0.0
03/05:30pm 34.7 29.3 2.3 13 16.7 SSE 20 33 11 18 1012.4 1011.6 0.0
03/05:00pm 34.5 28.3 2.1 13 16.6 S 24 35 13 19 1012.4 1011.6 0.0

Other Formats:

Comma delimited format used in spreadsheet applications
http://www.bom.gov.au/fwo/IDN60801/IDN60801.94686.axf

JavaScript Object Notation format (JSON) in row-major order
http://www.bom.gov.au/fwo/IDN60801/IDN60801.94686.json